Time;durP1;ratioP1;P1;durP2;ratioP2;P2;SDS_P1;SDS_P2;PMS_P1;PMS_P2;Temp;Humidity;BMP_temperature;BMP_pressure;BME280_temperature;BME280_humidity;BME280_pressure;Samples;Min_cycle;Max_cycle;Signal;HPM_P1;HPM_P2
2021/12/13 00:01:34;;;;;;;;;;;;;;;;;;4148933;28;7002;-51
2021/12/13 00:03:58;;;;;;;;;;;;;;;;;;4148784;28;7057;-52
2021/12/13 00:06:20;;;;;;;;;;;;;;;;;;4148755;28;7128;-52
2021/12/13 00:08:42;;;;;;;;;;;;;;;;;;4148807;28;7011;-51
2021/12/13 00:11:07;;;;;;;;;;;;;;;;;;4148823;28;7029;-51
2021/12/13 00:13:29;;;;;;;;;;;;;;;;;;4148763;28;7051;-51
2021/12/13 00:15:51;;;;;;;;;;;;;;;;;;4148842;28;7470;-51
2021/12/13 00:18:16;;;;;;;;;;;;;;;;;;4148602;28;7041;-51
2021/12/13 00:20:39;;;;;;;;;;;;;;;;;;4133472;28;7019;-51
2021/12/13 00:23:02;;;;;;;;;;;;;;;;;;4148774;28;7043;-51
2021/12/13 00:25:24;;;;;;;;;;;;;;;;;;4148769;28;7003;-51
2021/12/13 00:27:47;;;;;;;;;;;;;;;;;;4148604;28;6994;-51
2021/12/13 00:30:09;;;;;;;;;;;;;;;;;;4148508;28;7041;-52
2021/12/13 00:32:33;;;;;;;;;;;;;;;;;;4148305;28;7178;-52
2021/12/13 00:34:57;;;;;;;;;;;;;;;;;;4148538;28;7278;-51
2021/12/13 00:37:19;;;;;;;;;;;;;;;;;;4148443;28;7053;-51
2021/12/13 00:39:43;;;;;;;;;;;;;;;;;;4148412;28;7629;-51
2021/12/13 00:42:05;;;;;;;;;;;;;;;;;;4147128;28;7051;-51
2021/12/13 00:44:28;;;;;;;;;;;;;;;;;;4148548;28;7085;-51
2021/12/13 00:46:50;;;;;;;;;;;;;;;;;;4148352;28;7026;-51
2021/12/13 00:49:12;;;;;;;;;;;;;;;;;;4148398;28;6982;-51
2021/12/13 00:51:35;;;;;;;;;;;;;;;;;;4148332;28;6994;-51
2021/12/13 00:53:56;;;;;;;;;;;;;;;;;;4148162;28;7195;-51
2021/12/13 00:56:36;;;;;;;;;;;;;;;;;;4148106;28;7037;-52
2021/12/13 00:58:58;;;;;;;;;;;;;;;;;;4148103;28;7330;-51
2021/12/13 01:01:22;;;;;;;;;;;;;;;;;;4148065;28;7041;-51
2021/12/13 01:03:46;;;;;;;;;;;;;;;;;;4147785;28;7055;-51
2021/12/13 01:06:36;;;;;;;;;;;;;;;;;;4147747;28;7019;-51
2021/12/13 01:09:16;;;;;;;;;;;;;;;;;;4147926;28;7022;-51
2021/12/13 01:11:40;;;;;;;;;;;;;;;;;;4148072;28;7039;-51
2021/12/13 01:14:07;;;;;;;;;;;;;;;;;;4148009;28;7002;-51
2021/12/13 01:16:38;;;;;;;;;;;;;;;;;;4147723;28;7043;-51
2021/12/13 01:19:13;;;;;;;;;;;;;;;;;;4147968;28;7199;-51
2021/12/13 01:21:41;;;;;;;;;;;;;;;;;;4147735;28;7003;-51
2021/12/13 01:24:07;;;;;;;;;;;;;;;;;;4147895;28;7014;-51
2021/12/13 01:26:36;;;;;;;;;;;;;;;;;;4146674;28;7011;-51
2021/12/13 01:29:00;;;;;;;;;;;;;;;;;;4147769;28;7490;-51
2021/12/13 01:31:24;;;;;;;;;;;;;;;;;;4147573;28;7027;-51
2021/12/13 01:33:46;;;;;;;;;;;;;;;;;;4147621;28;7394;-51
2021/12/13 01:36:09;;;;;;;;;;;;;;;;;;4148158;28;7481;-51
2021/12/13 01:38:34;;;;;;;;;;;;;;;;;;4147666;28;7015;-52
2021/12/13 01:40:55;;;;;;;;;;;;;;;;;;4147414;28;7618;-51
2021/12/13 01:43:20;;;;;;;;;;;;;;;;;;4146039;28;7092;-52
2021/12/13 01:45:43;;;;;;;;;;;;;;;;;;4147298;28;7141;-52
2021/12/13 01:48:05;;;;;;;;;;;;;;;;;;4147355;28;7045;-51
2021/12/13 01:50:29;;;;;;;;;;;;;;;;;;4147945;28;6994;-51
2021/12/13 01:52:50;;;;;;;;;;;;;;;;;;4143188;28;6990;-51
2021/12/13 01:55:13;;;;;;;;;;;;;;;;;;4148349;28;7422;-51
2021/12/13 01:57:41;;;;;;;;;;;;;;;;;;4147430;28;6991;-52
2021/12/13 02:03:49;;;;;;;;;;;;;;;;;;4113457;28;7075;-51
2021/12/13 02:06:10;;;;;;;;;;;;;;;;;;4113585;28;7225;-51
2021/12/13 02:08:31;;;;;;;;;;;;;;;;;;4113470;28;7010;-52
2021/12/13 02:10:52;;;;;;;;;;;;;;;;;;4113638;28;7006;-51
2021/12/13 02:13:16;;;;;;;;;;;;;;;;;;4113258;28;7007;-52
2021/12/13 02:18:18;;;;;;;;;;;;;;;;;;4113258;28;7451;-51
2021/12/13 02:20:42;;;;;;;;;;;;;;;;;;4113862;28;7030;-51
2021/12/13 02:23:04;;;;;;;;;;;;;;;;;;4113885;28;7189;-51
2021/12/13 02:25:28;;;;;;;;;;;;;;;;;;4113858;28;7164;-51
2021/12/13 02:27:50;;;;;;;;;;;;;;;;;;4136935;28;7051;-51
2021/12/13 02:30:14;;;;;;;;;;;;;;;;;;4148324;28;7040;-52
2021/12/13 02:32:35;;;;;;;;;;;;;;;;;;4147307;28;6970;-51
2021/12/13 02:34:57;;;;;;;;;;;;;;;;;;4148348;28;7015;-51
2021/12/13 02:37:18;;;;;;;;;;;;;;;;;;4148042;28;7003;-52
2021/12/13 02:39:44;;;;;;;;;;;;;;;;;;4148145;28;6994;-51
2021/12/13 02:42:05;;;;;;;;;;;;;;;;;;4148305;28;7060;-51
2021/12/13 02:44:31;;;;;;;;;;;;;;;;;;4148058;28;7454;-51
2021/12/13 02:46:53;;;;;;;;;;;;;;;;;;4148060;28;7027;-51
2021/12/13 02:49:15;;;;;;;;;;;;;;;;;;4148016;28;7002;-52
2021/12/13 02:51:37;;;;;;;;;;;;;;;;;;4146608;28;7017;-52
2021/12/13 02:54:00;;;;;;;;;;;;;;;;;;4147963;28;7003;-51
2021/12/13 02:56:23;;;;;;;;;;;;;;;;;;4148152;28;7486;-51
2021/12/13 02:58:44;;;;;;;;;;;;;;;;;;4147810;28;7006;-51
2021/12/13 03:01:07;;;;;;;;;;;;;;;;;;4147898;28;6994;-51
2021/12/13 03:03:29;;;;;;;;;;;;;;;;;;4148054;28;7053;-52
2021/12/13 03:05:51;;;;;;;;;;;;;;;;;;4147793;28;7117;-52
2021/12/13 03:08:13;;;;;;;;;;;;;;;;;;4147818;28;7010;-51
2021/12/13 03:10:35;;;;;;;;;;;;;;;;;;4147825;28;7029;-51
2021/12/13 03:12:58;;;;;;;;;;;;;;;;;;4147596;28;7002;-51
2021/12/13 03:15:21;;;;;;;;;;;;;;;;;;4147795;28;7029;-52
2021/12/13 03:17:44;;;;;;;;;;;;;;;;;;4147982;28;7093;-52
2021/12/13 03:20:14;;;;;;;;;;;;;;;;;;4147588;28;7006;-51
2021/12/13 03:22:57;;;;;;;;;;;;;;;;;;4147663;28;7019;-52
2021/12/13 03:25:22;;;;;;;;;;;;;;;;;;4147795;28;7018;-52
2021/12/13 03:27:50;;;;;;;;;;;;;;;;;;4147450;28;7041;-52
2021/12/13 03:30:14;;;;;;;;;;;;;;;;;;4150473;28;7030;-51
2021/12/13 03:32:37;;;;;;;;;;;;;;;;;;4151138;28;7155;-52
2021/12/13 03:35:09;;;;;;;;;;;;;;;;;;4150829;28;7414;-51
2021/12/13 03:37:30;;;;;;;;;;;;;;;;;;4150972;28;7114;-52
2021/12/13 03:39:53;;;;;;;;;;;;;;;;;;4150844;28;7006;-52
2021/12/13 03:42:15;;;;;;;;;;;;;;;;;;4150764;28;7026;-51
2021/12/13 03:44:37;;;;;;;;;;;;;;;;;;4150811;28;7402;-51
2021/12/13 03:47:02;;;;;;;;;;;;;;;;;;4150723;28;7010;-51
2021/12/13 03:49:24;;;;;;;;;;;;;;;;;;4150559;28;6998;-51
2021/12/13 03:51:45;;;;;;;;;;;;;;;;;;4150354;28;7037;-52
2021/12/13 03:54:07;;;;;;;;;;;;;;;;;;4150725;28;7002;-51
2021/12/13 03:56:29;;;;;;;;;;;;;;;;;;4150566;28;7190;-52
2021/12/13 03:58:51;;;;;;;;;;;;;;;;;;4150456;28;7031;-51
2021/12/13 04:01:14;;;;;;;;;;;;;;;;;;4150512;28;7050;-52
2021/12/13 04:03:37;;;;;;;;;;;;;;;;;;4150467;28;7017;-52
2021/12/13 04:05:58;;;;;;;;;;;;;;;;;;4150312;28;7030;-52
2021/12/13 04:08:20;;;;;;;;;;;;;;;;;;4150526;28;7173;-52
2021/12/13 04:10:42;;;;;;;;;;;;;;;;;;4150321;28;7128;-52
2021/12/13 04:13:09;;;;;;;;;;;;;;;;;;4150293;28;7045;-52
2021/12/13 04:15:36;;;;;;;;;;;;;;;;;;4150383;28;6999;-51
2021/12/13 04:18:02;;;;;;;;;;;;;;;;;;4150277;28;7170;-52
2021/12/13 04:20:26;;;;;;;;;;;;;;;;;;4150346;28;7027;-52
2021/12/13 04:22:49;;;;;;;;;;;;;;;;;;4150316;28;7022;-52
2021/12/13 04:25:11;;;;;;;;;;;;;;;;;;4150166;28;7010;-51
2021/12/13 04:27:33;;;;;;;;;;;;;;;;;;4149899;28;7014;-51
2021/12/13 04:29:55;;;;;;;;;;;;;;;;;;4150476;28;7002;-52
2021/12/13 04:32:17;;;;;;;;;;;;;;;;;;4150179;28;7002;-51
2021/12/13 04:34:41;;;;;;;;;;;;;;;;;;4150226;28;7011;-52
2021/12/13 04:37:03;;;;;;;;;;;;;;;;;;4150226;28;7165;-52
2021/12/13 04:39:27;;;;;;;;;;;;;;;;;;4150173;28;7006;-51
2021/12/13 04:41:49;;;;;;;;;;;;;;;;;;4149025;28;7143;-52
2021/12/13 04:44:10;;;;;;;;;;;;;;;;;;4149894;28;7019;-51
2021/12/13 04:46:32;;;;;;;;;;;;;;;;;;4149951;28;7097;-51
2021/12/13 04:48:54;;;;;;;;;;;;;;;;;;4149545;28;7002;-52
2021/12/13 04:51:16;;;;;;;;;;;;;;;;;;4149374;28;7026;-52
2021/12/13 04:53:40;;;;;;;;;;;;;;;;;;4148510;28;7011;-52
2021/12/13 04:56:02;;;;;;;;;;;;;;;;;;4149525;28;7045;-51
2021/12/13 04:58:23;;;;;;;;;;;;;;;;;;4148276;28;7182;-52
2021/12/13 05:00:46;;;;;;;;;;;;;;;;;;4146124;28;7045;-51
2021/12/13 05:03:07;;;;;;;;;;;;;;;;;;4144373;28;8427;-51
2021/12/13 05:05:29;;;;;;;;;;;;;;;;;;4149127;28;6983;-51
2021/12/13 05:07:51;;;;;;;;;;;;;;;;;;4149172;28;7022;-52
2021/12/13 05:10:14;;;;;;;;;;;;;;;;;;4149591;28;7504;-51
2021/12/13 05:12:35;;;;;;;;;;;;;;;;;;4149332;28;7011;-52
2021/12/13 05:14:57;;;;;;;;;;;;;;;;;;4149030;28;7030;-52
2021/12/13 05:17:19;;;;;;;;;;;;;;;;;;4149353;28;7017;-52
2021/12/13 05:19:41;;;;;;;;;;;;;;;;;;4145490;28;7022;-51
2021/12/13 05:22:02;;;;;;;;;;;;;;;;;;4132907;28;7050;-51
2021/12/13 05:24:24;;;;;;;;;;;;;;;;;;4132840;28;7007;-51
2021/12/13 05:26:50;;;;;;;;;;;;;;;;;;4135313;28;7011;-51
2021/12/13 05:29:20;;;;;;;;;;;;;;;;;;4149293;28;7006;-52
2021/12/13 05:31:42;;;;;;;;;;;;;;;;;;4148948;28;7057;-52
2021/12/13 05:34:04;;;;;;;;;;;;;;;;;;4149053;28;7051;-52
2021/12/13 05:36:26;;;;;;;;;;;;;;;;;;4149151;28;7002;-51
2021/12/13 05:38:48;;;;;;;;;;;;;;;;;;4149084;28;7006;-51
2021/12/13 05:41:10;;;;;;;;;;;;;;;;;;4148888;28;7023;-52
2021/12/13 05:43:33;;;;;;;;;;;;;;;;;;4149076;28;7227;-51
2021/12/13 05:45:56;;;;;;;;;;;;;;;;;;4148576;28;7086;-51
2021/12/13 05:48:17;;;;;;;;;;;;;;;;;;4148760;28;7030;-51
2021/12/13 05:50:39;;;;;;;;;;;;;;;;;;4148965;28;6994;-52
2021/12/13 05:53:01;;;;;;;;;;;;;;;;;;4147837;28;7034;-51
2021/12/13 05:55:22;;;;;;;;;;;;;;;;;;4148116;28;7141;-51
2021/12/13 05:57:44;;;;;;;;;;;;;;;;;;4148346;28;7069;-52
2021/12/13 06:00:08;;;;;;;;;;;;;;;;;;4148375;28;7038;-51
2021/12/13 06:02:53;;;;;;;;;;;;;;;;;;4148610;28;7015;-52
2021/12/13 06:05:15;;;;;;;;;;;;;;;;;;4148632;28;7092;-52
2021/12/13 06:07:37;;;;;;;;;;;;;;;;;;4148372;28;7051;-51
2021/12/13 06:09:59;;;;;;;;;;;;;;;;;;4145852;28;7019;-51
2021/12/13 06:12:28;;;;;;;;;;;;;;;;;;4140832;28;7026;-51
2021/12/13 06:14:49;;;;;;;;;;;;;;;;;;4132245;28;7182;-51
2021/12/13 06:17:13;;;;;;;;;;;;;;;;;;4147431;28;7006;-51
2021/12/13 06:19:35;;;;;;;;;;;;;;;;;;4133412;28;7013;-51
2021/12/13 06:22:01;;;;;;;;;;;;;;;;;;4144549;28;7002;-51
2021/12/13 06:24:26;;;;;;;;;;;;;;;;;;4145785;28;6990;-51
2021/12/13 06:26:47;;;;;;;;;;;;;;;;;;4148530;28;7006;-51
2021/12/13 06:29:08;;;;;;;;;;;;;;;;;;4142612;28;7045;-51
2021/12/13 06:31:35;;;;;;;;;;;;;;;;;;4141779;28;7007;-51
2021/12/13 06:33:59;;;;;;;;;;;;;;;;;;4148308;28;7033;-52
2021/12/13 06:36:24;;;;;;;;;;;;;;;;;;4139496;28;7057;-52
2021/12/13 06:38:47;;;;;;;;;;;;;;;;;;4148259;28;8340;-51
2021/12/13 06:41:10;;;;;;;;;;;;;;;;;;4140937;28;7246;-51
2021/12/13 06:43:32;;;;;;;;;;;;;;;;;;4131238;28;7031;-51
2021/12/13 06:45:53;;;;;;;;;;;;;;;;;;4131703;28;7051;-51
2021/12/13 06:48:15;;;;;;;;;;;;;;;;;;4131625;28;7023;-51
2021/12/13 06:50:38;;;;;;;;;;;;;;;;;;4131517;28;7148;-52
2021/12/13 06:53:13;;;;;;;;;;;;;;;;;;4130304;28;7006;-51
2021/12/13 06:55:34;;;;;;;;;;;;;;;;;;4131548;28;7037;-51
2021/12/13 06:58:00;;;;;;;;;;;;;;;;;;4131503;28;7126;-51
2021/12/13 07:00:26;;;;;;;;;;;;;;;;;;4131484;28;7407;-51
2021/12/13 07:02:49;;;;;;;;;;;;;;;;;;4136972;28;7070;-51
2021/12/13 07:05:11;;;;;;;;;;;;;;;;;;4132013;28;7011;-52
2021/12/13 07:07:35;;;;;;;;;;;;;;;;;;4135821;28;7536;-51
2021/12/13 07:09:57;;;;;;;;;;;;;;;;;;4129002;28;6972;-52
2021/12/13 07:12:18;;;;;;;;;;;;;;;;;;4133544;28;7438;-51
2021/12/13 07:14:40;;;;;;;;;;;;;;;;;;4131911;28;7273;-51
2021/12/13 07:17:01;;;;;;;;;;;;;;;;;;4134575;28;8136;-51
2021/12/13 07:19:23;;;;;;;;;;;;;;;;;;4133133;28;7015;-51
2021/12/13 07:21:45;;;;;;;;;;;;;;;;;;4126662;28;6998;-51
2021/12/13 07:24:09;;;;;;;;;;;;;;;;;;4131278;28;7192;-51
2021/12/13 07:26:31;;;;;;;;;;;;;;;;;;4129284;28;7010;-51
2021/12/13 07:28:53;;;;;;;;;;;;;;;;;;4133187;28;7454;-52
2021/12/13 07:31:15;;;;;;;;;;;;;;;;;;4133598;28;7183;-51
2021/12/13 07:33:37;;;;;;;;;;;;;;;;;;4131448;28;7426;-51
2021/12/13 07:35:58;;;;;;;;;;;;;;;;;;4131515;28;7097;-51
2021/12/13 07:38:21;;;;;;;;;;;;;;;;;;4131493;28;6990;-51
2021/12/13 07:40:44;;;;;;;;;;;;;;;;;;4141346;28;7006;-51
2021/12/13 07:43:10;;;;;;;;;;;;;;;;;;4135426;28;7058;-51
2021/12/13 07:45:34;;;;;;;;;;;;;;;;;;4135319;28;7047;-53
2021/12/13 07:47:55;;;;;;;;;;;;;;;;;;4147360;28;7027;-52
2021/12/13 07:50:16;;;;;;;;;;;;;;;;;;4140641;28;7160;-51
2021/12/13 07:52:39;;;;;;;;;;;;;;;;;;4145501;28;7019;-53
2021/12/13 07:55:12;;;;;;;;;;;;;;;;;;4145363;28;7035;-51
2021/12/13 07:57:35;;;;;;;;;;;;;;;;;;4146916;28;7077;-51
2021/12/13 07:59:56;;;;;;;;;;;;;;;;;;4146863;28;7035;-51
2021/12/13 08:02:19;;;;;;;;;;;;;;;;;;4160089;28;7217;-51
2021/12/13 08:04:44;;;;;;;;;;;;;;;;;;4160057;28;7073;-51
2021/12/13 08:07:07;;;;;;;;;;;;;;;;;;4147174;28;7006;-51
2021/12/13 08:09:29;;;;;;;;;;;;;;;;;;4145825;28;7015;-51
2021/12/13 08:11:51;;;;;;;;;;;;;;;;;;4147229;28;7125;-51
2021/12/13 08:14:14;;;;;;;;;;;;;;;;;;4147243;28;6994;-51
2021/12/13 08:16:36;;;;;;;;;;;;;;;;;;4148866;28;6994;-51
2021/12/13 08:19:05;;;;;;;;;;;;;;;;;;4150331;28;7006;-51
2021/12/13 08:21:26;;;;;;;;;;;;;;;;;;4150184;28;7033;-51
2021/12/13 08:23:48;;;;;;;;;;;;;;;;;;4150212;28;6994;-51
2021/12/13 08:26:10;;;;;;;;;;;;;;;;;;4150084;28;7104;-51
2021/12/13 08:28:35;;;;;;;;;;;;;;;;;;4150050;28;7019;-51
2021/12/13 08:30:58;;;;;;;;;;;;;;;;;;4150111;28;7065;-51
2021/12/13 08:33:19;;;;;;;;;;;;;;;;;;4149833;28;7117;-51
2021/12/13 08:35:48;;;;;;;;;;;;;;;;;;4149962;28;7382;-51
2021/12/13 08:38:10;;;;;;;;;;;;;;;;;;4150012;28;7003;-51
2021/12/13 08:40:32;;;;;;;;;;;;;;;;;;4149780;28;7085;-52
2021/12/13 08:42:53;;;;;;;;;;;;;;;;;;4149741;28;7049;-52
2021/12/13 08:45:17;;;;;;;;;;;;;;;;;;4149855;28;7431;-51
2021/12/13 08:47:41;;;;;;;;;;;;;;;;;;4149571;28;7145;-52
2021/12/13 08:50:05;;;;;;;;;;;;;;;;;;4149838;28;7010;-51
2021/12/13 08:52:27;;;;;;;;;;;;;;;;;;4149682;28;7093;-51
2021/12/13 08:54:51;;;;;;;;;;;;;;;;;;4149467;28;7027;-52
2021/12/13 08:57:14;;;;;;;;;;;;;;;;;;4149774;28;7260;-51
2021/12/13 08:59:35;;;;;;;;;;;;;;;;;;4149522;28;7022;-52
2021/12/13 09:01:57;;;;;;;;;;;;;;;;;;4149607;28;7124;-51
2021/12/13 09:04:22;;;;;;;;;;;;;;;;;;4149555;28;7053;-51
2021/12/13 09:06:43;;;;;;;;;;;;;;;;;;4149378;28;7128;-51
2021/12/13 09:09:07;;;;;;;;;;;;;;;;;;4149558;28;7026;-52
2021/12/13 09:11:31;;;;;;;;;;;;;;;;;;4149184;28;7006;-52
2021/12/13 09:13:54;;;;;;;;;;;;;;;;;;4147115;28;7002;-51
2021/12/13 09:16:18;;;;;;;;;;;;;;;;;;4132730;28;7019;-51
2021/12/13 09:18:40;;;;;;;;;;;;;;;;;;4132835;28;7168;-51
2021/12/13 09:21:03;;;;;;;;;;;;;;;;;;4132854;28;7059;-51
2021/12/13 09:23:25;;;;;;;;;;;;;;;;;;4131497;28;7538;-52
2021/12/13 09:25:47;;;;;;;;;;;;;;;;;;4131874;28;7138;-52
2021/12/13 09:28:10;;;;;;;;;;;;;;;;;;4132563;28;7043;-52
2021/12/13 09:30:34;;;;;;;;;;;;;;;;;;4132906;28;7002;-51
2021/12/13 09:32:57;;;;;;;;;;;;;;;;;;4132712;28;7080;-52
2021/12/13 09:35:23;;;;;;;;;;;;;;;;;;4132037;28;7161;-51
2021/12/13 09:37:45;;;;;;;;;;;;;;;;;;4132587;28;7000;-51
2021/12/13 09:40:07;;;;;;;;;;;;;;;;;;4132128;28;7018;-52
2021/12/13 09:42:28;;;;;;;;;;;;;;;;;;4132826;28;7162;-52
2021/12/13 09:44:54;;;;;;;;;;;;;;;;;;4132585;28;7030;-51
2021/12/13 09:47:16;;;;;;;;;;;;;;;;;;4132670;28;7022;-51
2021/12/13 09:49:39;;;;;;;;;;;;;;;;;;4132661;28;6983;-51
2021/12/13 09:52:01;;;;;;;;;;;;;;;;;;4132378;28;7041;-51
2021/12/13 09:54:25;;;;;;;;;;;;;;;;;;4132450;28;7150;-52
2021/12/13 09:56:49;;;;;;;;;;;;;;;;;;4132581;28;7010;-51
2021/12/13 09:59:15;;;;;;;;;;;;;;;;;;4132360;28;7165;-52
2021/12/13 10:01:36;;;;;;;;;;;;;;;;;;4132217;28;7045;-52
2021/12/13 10:03:59;;;;;;;;;;;;;;;;;;4146438;28;6986;-51
2021/12/13 10:06:20;;;;;;;;;;;;;;;;;;4148579;28;7049;-51
2021/12/13 10:08:43;;;;;;;;;;;;;;;;;;4148350;28;7015;-51
2021/12/13 10:11:07;;;;;;;;;;;;;;;;;;4148424;28;7026;-51
2021/12/13 10:13:29;;;;;;;;;;;;;;;;;;4148415;28;7131;-51
2021/12/13 10:15:51;;;;;;;;;;;;;;;;;;4148261;28;7036;-52
2021/12/13 10:18:14;;;;;;;;;;;;;;;;;;4148154;28;7456;-51
2021/12/13 10:20:37;;;;;;;;;;;;;;;;;;4144179;28;7502;-51
2021/12/13 10:22:59;;;;;;;;;;;;;;;;;;4131940;28;7011;-51
2021/12/13 10:25:21;;;;;;;;;;;;;;;;;;4132110;28;7018;-51
2021/12/13 10:27:43;;;;;;;;;;;;;;;;;;4131934;28;7173;-51
2021/12/13 10:30:06;;;;;;;;;;;;;;;;;;4131782;28;6982;-51
2021/12/13 10:32:28;;;;;;;;;;;;;;;;;;4131986;28;7051;-51
2021/12/13 10:34:50;;;;;;;;;;;;;;;;;;4131895;28;7010;-51
2021/12/13 10:37:12;;;;;;;;;;;;;;;;;;4131816;28;7178;-51
2021/12/13 10:39:35;;;;;;;;;;;;;;;;;;4131447;28;7019;-52
2021/12/13 10:41:57;;;;;;;;;;;;;;;;;;4131334;28;7006;-52
2021/12/13 10:44:25;;;;;;;;;;;;;;;;;;4131845;28;6994;-51
2021/12/13 10:46:47;;;;;;;;;;;;;;;;;;4136948;28;7764;-52
2021/12/13 10:49:09;;;;;;;;;;;;;;;;;;4136730;28;7006;-51
2021/12/13 10:51:32;;;;;;;;;;;;;;;;;;4136277;28;7458;-52
2021/12/13 10:53:53;;;;;;;;;;;;;;;;;;4131625;28;7010;-51
2021/12/13 10:56:15;;;;;;;;;;;;;;;;;;4131396;28;7300;-52
2021/12/13 10:58:37;;;;;;;;;;;;;;;;;;4141353;28;7187;-51
2021/12/13 11:01:00;;;;;;;;;;;;;;;;;;4143383;28;7080;-54
2021/12/13 11:03:22;;;;;;;;;;;;;;;;;;4142353;28;7002;-52
2021/12/13 11:05:44;;;;;;;;;;;;;;;;;;4144155;28;7045;-51
2021/12/13 11:08:06;;;;;;;;;;;;;;;;;;4142958;28;6998;-51
2021/12/13 11:10:28;;;;;;;;;;;;;;;;;;4147660;28;7105;-51
2021/12/13 11:12:51;;;;;;;;;;;;;;;;;;4138753;28;6996;-51
2021/12/13 11:15:15;;;;;;;;;;;;;;;;;;4143547;28;7204;-51
2021/12/13 11:17:40;;;;;;;;;;;;;;;;;;4131148;28;7168;-51
2021/12/13 11:20:02;;;;;;;;;;;;;;;;;;4131269;28;7042;-51
2021/12/13 11:22:25;;;;;;;;;;;;;;;;;;4131458;28;7045;-52
2021/12/13 11:24:47;;;;;;;;;;;;;;;;;;4131518;28;7049;-51
2021/12/13 11:27:10;;;;;;;;;;;;;;;;;;4131360;28;7003;-51
2021/12/13 11:29:32;;;;;;;;;;;;;;;;;;4131370;28;7049;-51
2021/12/13 11:32:05;;;;;;;;;;;;;;;;;;4131641;28;7006;-52
2021/12/13 11:34:41;;;;;;;;;;;;;;;;;;4131439;28;7007;-51
2021/12/13 11:37:21;;;;;;;;;;;;;;;;;;4131455;28;7011;-51
2021/12/13 11:39:58;;;;;;;;;;;;;;;;;;4131415;28;7002;-51
2021/12/13 11:42:34;;;;;;;;;;;;;;;;;;4131212;28;7400;-52
2021/12/13 11:45:09;;;;;;;;;;;;;;;;;;4131198;28;7158;-52
2021/12/13 11:47:44;;;;;;;;;;;;;;;;;;4131174;28;7033;-55
2021/12/13 11:50:18;;;;;;;;;;;;;;;;;;4128934;28;7154;-52
2021/12/13 11:52:58;;;;;;;;;;;;;;;;;;4134325;28;7002;-51
2021/12/13 11:55:35;;;;;;;;;;;;;;;;;;4150214;28;7038;-51
2021/12/13 11:58:16;;;;;;;;;;;;;;;;;;4149801;28;7023;-52
2021/12/13 12:00:43;;;;;;;;;;;;;;;;;;4149908;28;7019;-51
2021/12/13 12:03:23;;;;;;;;;;;;;;;;;;4149885;28;7153;-52
2021/12/13 12:05:52;;;;;;;;;;;;;;;;;;4149697;28;7046;-53
2021/12/13 12:08:19;;;;;;;;;;;;;;;;;;4150018;28;7370;-52
2021/12/13 12:10:52;;;;;;;;;;;;;;;;;;4149686;28;7058;-52
2021/12/13 12:13:16;;;;;;;;;;;;;;;;;;4150356;28;7010;-53
2021/12/13 12:15:39;;;;;;;;;;;;;;;;;;4150193;28;7011;-52
2021/12/13 12:18:01;;;;;;;;;;;;;;;;;;4149617;28;7018;-52
2021/12/13 12:20:24;;;;;;;;;;;;;;;;;;4149947;28;7038;-52
2021/12/13 12:22:49;;;;;;;;;;;;;;;;;;4149851;28;6974;-52
2021/12/13 12:25:11;;;;;;;;;;;;;;;;;;4149745;28;7036;-52
2021/12/13 12:27:34;;;;;;;;;;;;;;;;;;4149847;28;7025;-52
2021/12/13 12:29:56;;;;;;;;;;;;;;;;;;4149753;28;7003;-52
2021/12/13 12:32:18;;;;;;;;;;;;;;;;;;4147281;28;7049;-52
2021/12/13 12:34:46;;;;;;;;;;;;;;;;;;4135484;28;7326;-52
2021/12/13 12:37:21;;;;;;;;;;;;;;;;;;4145003;28;7080;-52
2021/12/13 12:40:00;;;;;;;;;;;;;;;;;;4135281;28;6998;-52
2021/12/13 12:42:28;;;;;;;;;;;;;;;;;;4135540;28;6979;-52
2021/12/13 12:45:01;;;;;;;;;;;;;;;;;;4139395;28;7003;-52
2021/12/13 12:47:22;;;;;;;;;;;;;;;;;;4137909;28;7011;-52
2021/12/13 12:49:43;;;;;;;;;;;;;;;;;;4132408;28;7164;-51
2021/12/13 12:52:05;;;;;;;;;;;;;;;;;;4131181;28;7041;-52
2021/12/13 12:54:27;;;;;;;;;;;;;;;;;;4131282;28;7291;-53
2021/12/13 12:56:49;;;;;;;;;;;;;;;;;;4137594;28;7116;-52
2021/12/13 12:59:12;;;;;;;;;;;;;;;;;;4147679;28;7341;-52
2021/12/13 13:01:35;;;;;;;;;;;;;;;;;;4146985;28;7041;-52
2021/12/13 13:04:06;;;;;;;;;;;;;;;;;;4146456;28;7122;-52
2021/12/13 13:06:27;;;;;;;;;;;;;;;;;;4147301;28;7022;-52
2021/12/13 13:08:49;;;;;;;;;;;;;;;;;;4146243;28;7015;-53
2021/12/13 13:13:46;;;;;;;;;;;;;;;;;;4147739;28;7015;-52
2021/12/13 13:16:08;;;;;;;;;;;;;;;;;;4147256;28;7060;-52
2021/12/13 13:18:30;;;;;;;;;;;;;;;;;;4134954;28;7489;-51
2021/12/13 13:20:54;;;;;;;;;;;;;;;;;;4130986;28;7015;-52
2021/12/13 13:23:15;;;;;;;;;;;;;;;;;;4130971;28;7088;-51
2021/12/13 13:25:37;;;;;;;;;;;;;;;;;;4131166;28;7006;-52
2021/12/13 13:27:58;;;;;;;;;;;;;;;;;;4130821;28;7002;-52
2021/12/13 13:30:21;;;;;;;;;;;;;;;;;;4131387;28;7117;-51
2021/12/13 13:32:42;;;;;;;;;;;;;;;;;;4130848;28;7002;-51
2021/12/13 13:35:05;;;;;;;;;;;;;;;;;;4130669;28;7033;-51
2021/12/13 13:37:27;;;;;;;;;;;;;;;;;;4130728;28;7042;-51
2021/12/13 13:39:48;;;;;;;;;;;;;;;;;;4130492;28;7015;-51
2021/12/13 13:42:10;;;;;;;;;;;;;;;;;;4137140;28;7165;-51
2021/12/13 13:44:31;;;;;;;;;;;;;;;;;;4146509;28;7041;-51
2021/12/13 13:46:59;;;;;;;;;;;;;;;;;;4146549;28;7014;-52
2021/12/13 13:49:21;;;;;;;;;;;;;;;;;;4146648;28;7449;-53
2021/12/13 13:51:43;;;;;;;;;;;;;;;;;;4146655;28;7076;-51
2021/12/13 13:54:05;;;;;;;;;;;;;;;;;;4146904;28;7017;-51
2021/12/13 13:56:27;;;;;;;;;;;;;;;;;;4146580;28;7128;-51
2021/12/13 13:58:49;;;;;;;;;;;;;;;;;;4146582;28;6995;-52
2021/12/13 14:01:12;;;;;;;;;;;;;;;;;;4146478;28;7150;-51
2021/12/13 14:03:34;;;;;;;;;;;;;;;;;;4146117;28;7022;-51
2021/12/13 14:05:57;;;;;;;;;;;;;;;;;;4146545;28;7014;-51
2021/12/13 14:08:20;;;;;;;;;;;;;;;;;;4145352;28;7011;-51
2021/12/13 14:10:42;;;;;;;;;;;;;;;;;;4146691;28;7312;-52
2021/12/13 14:13:04;;;;;;;;;;;;;;;;;;4147871;28;7159;-51
2021/12/13 14:15:27;;;;;;;;;;;;;;;;;;4146644;28;7026;-51
2021/12/13 14:17:49;;;;;;;;;;;;;;;;;;4147391;28;7010;-52
2021/12/13 14:20:21;;;;;;;;;;;;;;;;;;4148223;28;7053;-52
2021/12/13 14:22:42;;;;;;;;;;;;;;;;;;4147723;28;7249;-51
2021/12/13 14:25:06;;;;;;;;;;;;;;;;;;4145474;28;7231;-50
2021/12/13 14:27:28;;;;;;;;;;;;;;;;;;4146456;28;7023;-51
2021/12/13 14:29:50;;;;;;;;;;;;;;;;;;4139045;28;7069;-51
2021/12/13 14:32:12;;;;;;;;;;;;;;;;;;4131023;28;7152;-51
2021/12/13 14:34:33;;;;;;;;;;;;;;;;;;4146948;28;7139;-51
2021/12/13 14:36:56;;;;;;;;;;;;;;;;;;4147725;28;7334;-51
2021/12/13 14:39:19;;;;;;;;;;;;;;;;;;4147381;28;7019;-51
2021/12/13 14:41:42;;;;;;;;;;;;;;;;;;4147689;28;7109;-51
2021/12/13 14:44:04;;;;;;;;;;;;;;;;;;4147527;28;6986;-51
2021/12/13 14:46:30;;;;;;;;;;;;;;;;;;4147007;28;7006;-51
2021/12/13 14:49:01;;;;;;;;;;;;;;;;;;4147614;28;7006;-52
2021/12/13 14:51:22;;;;;;;;;;;;;;;;;;4147150;28;7023;-51
2021/12/13 14:53:44;;;;;;;;;;;;;;;;;;4147087;28;7050;-51
2021/12/13 14:56:06;;;;;;;;;;;;;;;;;;4147247;28;7015;-52
2021/12/13 14:58:32;;;;;;;;;;;;;;;;;;4148024;28;7144;-51
2021/12/13 15:00:59;;;;;;;;;;;;;;;;;;4147916;28;7018;-51
2021/12/13 15:03:21;;;;;;;;;;;;;;;;;;4147621;28;7106;-51
2021/12/13 15:05:43;;;;;;;;;;;;;;;;;;4147759;28;7043;-51
2021/12/13 15:08:06;;;;;;;;;;;;;;;;;;4147397;28;6994;-50
2021/12/13 15:10:29;;;;;;;;;;;;;;;;;;4147735;28;7055;-51
2021/12/13 15:12:50;;;;;;;;;;;;;;;;;;4147606;28;7054;-51
2021/12/13 15:15:15;;;;;;;;;;;;;;;;;;4147438;28;6990;-51
2021/12/13 15:17:37;;;;;;;;;;;;;;;;;;4147638;28;6983;-51
2021/12/13 15:20:03;;;;;;;;;;;;;;;;;;4147787;28;7042;-52
2021/12/13 15:22:24;;;;;;;;;;;;;;;;;;4146175;28;7126;-52
2021/12/13 15:24:45;;;;;;;;;;;;;;;;;;4147986;28;6986;-51
2021/12/13 15:27:08;;;;;;;;;;;;;;;;;;4142781;28;7436;-51
2021/12/13 15:29:30;;;;;;;;;;;;;;;;;;4144602;28;7499;-51
2021/12/13 15:31:53;;;;;;;;;;;;;;;;;;4159605;28;7487;-51
2021/12/13 15:34:15;;;;;;;;;;;;;;;;;;4147793;28;7017;-51
2021/12/13 15:36:36;;;;;;;;;;;;;;;;;;4141433;28;7037;-51
2021/12/13 15:38:59;;;;;;;;;;;;;;;;;;4141400;28;7049;-51
2021/12/13 15:41:22;;;;;;;;;;;;;;;;;;4137854;28;6994;-51
2021/12/13 15:43:44;;;;;;;;;;;;;;;;;;4150039;28;7052;-53
2021/12/13 15:46:07;;;;;;;;;;;;;;;;;;4148401;28;7258;-51
2021/12/13 15:51:09;;;;;;;;;;;;;;;;;;4140291;28;7179;-51
2021/12/13 15:53:32;;;;;;;;;;;;;;;;;;4133849;28;7010;-51
2021/12/13 15:55:53;;;;;;;;;;;;;;;;;;4136176;28;7381;-51
2021/12/13 15:58:16;;;;;;;;;;;;;;;;;;4150316;28;7161;-51
2021/12/13 16:00:38;;;;;;;;;;;;;;;;;;4150036;28;7046;-51
2021/12/13 16:02:59;;;;;;;;;;;;;;;;;;4142896;28;7166;-51
2021/12/13 16:05:24;;;;;;;;;;;;;;;;;;4134016;28;7100;-51
2021/12/13 16:07:45;;;;;;;;;;;;;;;;;;4133751;28;7011;-51
2021/12/13 16:10:07;;;;;;;;;;;;;;;;;;4145618;28;7060;-51
2021/12/13 16:12:30;;;;;;;;;;;;;;;;;;4149970;28;7017;-51
2021/12/13 16:14:51;;;;;;;;;;;;;;;;;;4149645;28;6998;-51
2021/12/13 16:17:21;;;;;;;;;;;;;;;;;;4149891;28;7051;-51
2021/12/13 16:19:45;;;;;;;;;;;;;;;;;;4150025;28;7455;-52
2021/12/13 16:22:09;;;;;;;;;;;;;;;;;;4149647;28;7053;-52
2021/12/13 16:24:30;;;;;;;;;;;;;;;;;;4149831;28;7037;-52
2021/12/13 16:26:52;;;;;;;;;;;;;;;;;;4149203;28;7137;-51
2021/12/13 16:29:15;;;;;;;;;;;;;;;;;;4149780;28;6999;-54
2021/12/13 16:31:37;;;;;;;;;;;;;;;;;;4149646;28;7310;-53
2021/12/13 16:34:07;;;;;;;;;;;;;;;;;;4149931;28;7019;-53
2021/12/13 16:36:29;;;;;;;;;;;;;;;;;;4148816;28;7032;-53
2021/12/13 16:38:53;;;;;;;;;;;;;;;;;;4149383;28;7458;-53
2021/12/13 16:41:15;;;;;;;;;;;;;;;;;;4149490;28;7229;-53
2021/12/13 16:43:37;;;;;;;;;;;;;;;;;;4149552;28;7053;-53
2021/12/13 16:45:58;;;;;;;;;;;;;;;;;;4149456;28;7140;-53
2021/12/13 16:48:20;;;;;;;;;;;;;;;;;;4149607;28;7022;-53
2021/12/13 16:50:41;;;;;;;;;;;;;;;;;;4149433;28;7053;-54